»·PEaware :: N700DK KPDX-KBFI

N700DK :: KPDX-KBFI

FLIGHT INFORMATION

Flight Status: Arrived
Operator: Privately registered:
United States
More flights under this callsign
Pilot: Brendan O. (14500)
Aircraft: CESSNA 340
(C340)
More flights by this aircraft type
Origin: KPDX Portland Intl
United States
Destination: KBFI Boeing Field/King Co Intl
United States
More flights between these airports :: More routes between these airports
Route: +PTLD1 BTG OLM2
File this flight plan on PilotEdge
Remarks:
Altitude:
(Current/Filed)
14,000ft
Speed:
(Current/Filed)
185kts
Departed: 09-Jan-19 06:32 PM
Arrived: 09-Jan-19 07:28 PM
Distance/Time
Traveled:
117nm/0:55
Distance/Time
To Go:
Arrived

Flight Plot

Page will automatically refresh every two minutes.


Map Options




Map Legend


Flown Route
Filed Route
Departure Airport
Arrival Airport
Navaid (VOR, NDB)
Fix

Horizontal Profiles

Position Reports

Time Latitude Longitude Heading Altitude Ground
Speed
09-Jan-19 18:07 45.581733 -122.596645 247 17ft 0kts
09-Jan-19 18:08 45.581733 -122.596645 247 17ft 0kts
09-Jan-19 18:09 45.581733 -122.596645 247 17ft 0kts
09-Jan-19 18:10 45.581733 -122.596645 247 17ft 0kts
09-Jan-19 18:11 45.581733 -122.596645 248 17ft 0kts
09-Jan-19 18:12 45.581733 -122.596645 247 17ft 0kts
09-Jan-19 18:13 45.581733 -122.596645 247 17ft 0kts
09-Jan-19 18:14 45.581733 -122.596645 247 17ft 0kts
09-Jan-19 18:15 45.581733 -122.596645 247 17ft 0kts
09-Jan-19 18:16 45.581733 -122.596645 247 17ft 0kts
09-Jan-19 18:17 45.581720 -122.596887 294 17ft 10kts
09-Jan-19 18:18 45.582602 -122.596354 30 17ft 0kts
09-Jan-19 18:19 45.582601 -122.596354 30 17ft 0kts
09-Jan-19 18:20 45.582601 -122.596354 30 17ft 0kts
09-Jan-19 18:21 45.582601 -122.596354 30 17ft 0kts
09-Jan-19 18:22 45.582748 -122.596305 3 17ft 0kts
09-Jan-19 18:23 45.585410 -122.599734 301 17ft 14kts
09-Jan-19 18:24 45.588644 -122.607967 295 17ft 25kts
09-Jan-19 18:25 45.589067 -122.609095 121 18ft 0kts
09-Jan-19 18:26 45.588280 -122.606275 42 17ft 0kts
09-Jan-19 18:27 45.588280 -122.606275 42 17ft 0kts
09-Jan-19 18:28 45.590915 -122.602551 47 20ft 16kts
09-Jan-19 18:29 45.594352 -122.597603 41 23ft 0kts
09-Jan-19 18:30 45.594352 -122.597603 41 23ft 0kts
09-Jan-19 18:31 45.592905 -122.590705 117 20ft 86kts
09-Jan-19 18:32 45.579919 -122.554188 117 1392ft 113kts
09-Jan-19 18:34 45.568643 -122.512553 90 3222ft 121kts
09-Jan-19 18:35 45.574425 -122.472303 53 4425ft 149kts
09-Jan-19 18:36 45.605428 -122.474606 331 5293ft 186kts
09-Jan-19 18:37 45.632832 -122.498951 333 5905ft 194kts
09-Jan-19 18:38 45.668242 -122.526339 331 6277ft 212kts
09-Jan-19 18:39 45.706054 -122.557185 329 6567ft 217kts
09-Jan-19 18:40 45.744082 -122.587845 336 6858ft 220kts
09-Jan-19 18:41 45.784669 -122.598921 7 6837ft 226kts
09-Jan-19 18:42 45.826626 -122.608325 342 8099ft 194kts
09-Jan-19 18:43 45.859711 -122.619034 344 9058ft 195kts
09-Jan-19 18:44 45.889801 -122.626879 342 9903ft 197kts
09-Jan-19 18:45 45.928417 -122.636510 338 10991ft 197kts
09-Jan-19 18:46 45.977348 -122.648692 334 12405ft 195kts
09-Jan-19 18:47 46.021833 -122.659842 334 13675ft 195kts
09-Jan-19 18:48 46.066736 -122.671282 334 14671ft 213kts
09-Jan-19 18:49 46.123488 -122.687960 341 13996ft 260kts
09-Jan-19 18:49 46.180575 -122.699896 338 13936ft 244kts
09-Jan-19 18:51 46.254547 -122.718393 338 13951ft 243kts
09-Jan-19 18:52 46.319677 -122.734835 338 13950ft 250kts
09-Jan-19 18:52 46.374414 -122.748638 338 13948ft 245kts
09-Jan-19 18:53 46.434183 -122.763857 338 13946ft 244kts
09-Jan-19 18:55 46.508922 -122.782889 338 13934ft 244kts
09-Jan-19 18:55 46.564740 -122.797135 338 13925ft 244kts
09-Jan-19 18:56 46.626072 -122.812816 338 13925ft 244kts
09-Jan-19 18:58 46.702561 -122.832451 340 12958ft 268kts
09-Jan-19 18:58 46.753655 -122.845098 338 12815ft 257kts
09-Jan-19 18:59 46.821697 -122.862907 338 12058ft 259kts
09-Jan-19 19:00 46.884107 -122.879111 339 11369ft 256kts
09-Jan-19 19:01 46.934352 -122.892071 340 10898ft 249kts
09-Jan-19 19:02 46.986491 -122.881042 31 10078ft 261kts
09-Jan-19 19:03 47.027875 -122.830839 42 9955ft 237kts
09-Jan-19 19:04 47.069777 -122.776928 43 9968ft 233kts
09-Jan-19 19:05 47.107922 -122.728025 43 9963ft 233kts
09-Jan-19 19:06 47.148235 -122.676361 43 9961ft 235kts
09-Jan-19 19:07 47.184252 -122.630146 42 9961ft 234kts
09-Jan-19 19:08 47.213878 -122.593707 26 9925ft 234kts
09-Jan-19 19:09 47.250245 -122.587956 357 9542ft 233kts
09-Jan-19 19:10 47.289578 -122.586151 357 9107ft 233kts
09-Jan-19 19:11 47.325456 -122.585023 357 8727ft 232kts
09-Jan-19 19:12 47.362221 -122.584317 357 8328ft 231kts
09-Jan-19 19:13 47.412736 -122.586166 352 7806ft 226kts
09-Jan-19 19:14 47.466739 -122.591212 351 7335ft 218kts
09-Jan-19 19:15 47.511131 -122.593953 351 6892ft 213kts
09-Jan-19 19:16 47.568364 -122.597336 352 6273ft 207kts
09-Jan-19 19:17 47.624290 -122.610136 335 5404ft 200kts
09-Jan-19 19:18 47.675210 -122.608837 47 4170ft 214kts
09-Jan-19 19:19 47.711154 -122.547243 47 3304ft 194kts
09-Jan-19 19:20 47.734835 -122.489442 102 2984ft 166kts
09-Jan-19 19:21 47.702032 -122.447748 151 2994ft 156kts
09-Jan-19 19:22 47.664951 -122.416989 149 2957ft 145kts
09-Jan-19 19:23 47.633788 -122.390434 149 2161ft 117kts
09-Jan-19 19:24 47.605993 -122.366846 149 1527ft 119kts
09-Jan-19 19:25 47.579233 -122.343479 147 910ft 121kts
09-Jan-19 19:26 47.550317 -122.320759 148 314ft 112kts
09-Jan-19 19:27 47.532778 -122.304758 150 16ft 32kts
09-Jan-19 19:28 47.530401 -122.301898 50 17ft 0kts
09-Jan-19 19:29 47.530407 -122.298705 132 20ft 0kts

Navigation Log

Ident Type
Flight plan parsing failed, navigation log unavailable